LiveATC.Net - Listen to live air traffic control over the Internet! Contact for advertising information

ICAO: KPGD  IATA: PGD   Airport: Charlotte County Airport
City: Punta Gorda   State/Province: Florida
Country: United States   Continent: North America
KPGD METAR Weather: KPGD 101553Z 25011KT 10SM SCT029 SCT036 29/24 A2999 RMK AO2 SLP157 T02940239
KPGD Flight Activity (FlightAware)
KPGD Airport Info   (AirNav) (iFlightPlanner)
KPGD VFR Sectional Chart   (iFlightPlanner) 
KPGD IFR Low Chart   (iFlightPlanner) 
KPGD Del/Gnd/Twr
Feed Status: DOWN
Last heard on: 2015-10-01 01:03:02 (9 days 15 hours 6 minutes ago)
KPGD Del/Gnd/Twr Audio Archives
Punta Gorda Ground119.550
Punta Gorda Tower/CTAF121.000


Unauthorized use prohibited. See Terms of Service

Find LiveATC Audio Streams

Airport/ARTCC Code

(e.g., 124.400, 128.75)
Site-wide search

Browse LiveATC Feeds
LiveATC Coverage Map
Top 50 LiveATC Feeds
Bad Weather Areas

Offer a LiveATC Feed
Press Inquiries

LiveATC on iPhone
LiveATC on Android

Windows Phone
Windows 8/10

LiveATC Mobile
(Mobile browser)

ATC Audio Archives
Interesting Recordings

LiveATC Forums

Home Page
Make a Donation
LiveATC Bookstore

Terms of Use
Privacy Policy

ATC/Radar Sites
U.S. ARTCC Freqs
Canadian Air Freqs


FAA Airport Status
Nat'l Airspace Status
Arrival Demand Charts

Server Software By:

Please make a donation to help us keep growing!